Boonsboro, MD

6:15 AM EST on November 23, 2014 (GMT -0500)
Boonsboro Weather (South) | Change Station
CLOSE
Current Station
Personal Weather Station
Location: Boonsboro, MD
Elevation: 492 ft
Nearby Weather Stations

Elev 492 ft 39.48 °N, 77.67 °W | Updated 6 seconds ago

Partly Cloudy
Partly Cloudy
36.0 °F
Feels Like 33 °F
N
3.5
Wind Variable Wind from SE
Gusts 3.5 mph

Today
High -- | Low -- °F
--% Chance of Precip.
Yesterday
High -- | Low -- °F
Precip. -- in
7:03 AM 4:50 PM
New Moon, 1% visible
Pressure 30.21 in
Visibility 10.0 miles
Clouds Clear
Windchill 33 °F
Dew Point 23 °F
Humidity 58%
Rainfall 0.00 in
Snow Depth Not available.
UV 0 out of 12
Pollen .10 out of 12
Air Quality Not available.
Flu Activity Not available.
METAR KHGR 231053Z AUTO 13004KT 10SM CLR 05/M08 A3016 RMK AO2 SLP229 T00501078

More Conditions Fewer Conditions

Pressure 30.21 in
Visibility 10.0 miles
Clouds Clear
Windchill 33 °F
Dew Point 23 °F
Humidity 58%
Rainfall 0.00 in
Snow Depth Not available.
UV 0 out of 12
Pollen .10 out of 12
Air Quality Not available.
Flu Activity Not available.
METAR KHGR 231053Z AUTO 13004KT 10SM CLR 05/M08 A3016 RMK AO2 SLP229 T00501078

More Conditions Fewer Conditions

10-Day Weather Forecast

Almanac

Astronomy

Nov. 23, 2014 Rise Set
Actual Time
Civil Twilight
Nautical Twilight
Astronomical Twilight
Moon
Length of Visible Light
Length of Day
Tomorrow will be .
, % of the Moon is Illuminated

Today's Extremes

State Highs State Lows

Community

WunderPhotos

Upload Photos

1,773,036 photos uploaded!

WunderBlogs® & News

Nearby

Air Quality

  Air Quality AQ Index Pollutant
Not available.

Snow Depth

Station Depth Elevation

Earthquake Activity

City Distance Mag. Time & Date
Minimum magnitude displayed is 2.5.

Coastal Water Temperatures

Place Temperature

Nearby Weather Stations